Time;durP1;ratioP1;P1;durP2;ratioP2;P2;SDS_P1;SDS_P2;PMS_P1;PMS_P2;Temp;Humidity;BMP_temperature;BMP_pressure;BME280_temperature;BME280_humidity;BME280_pressure;Samples;Min_cycle;Max_cycle;Signal;HPM_P1;HPM_P2
2022/08/08 00:00:10;;;;;;;8.77;5.65;;;;;;;20.27;78.66;94682.13;5011699;28;20192;-76
2022/08/08 00:02:45;;;;;;;8.43;5.18;;;;;;;20.32;78.19;94683.72;5011408;28;20403;-76
2022/08/08 00:05:19;;;;;;;9.60;5.82;;;;;;;20.35;77.52;94678.25;5011858;28;20215;-76
2022/08/08 00:07:59;;;;;;;9.38;5.93;;;;;;;20.39;77.32;94681.81;5010576;28;20208;-75
2022/08/08 00:10:33;;;;;;;7.90;5.22;;;;;;;20.40;77.26;94682.59;5010734;28;20267;-77
2022/08/08 00:13:09;;;;;;;9.90;6.03;;;;;;;20.21;79.16;94680.94;5011384;28;20727;-77
2022/08/08 00:15:41;;;;;;;8.65;5.60;;;;;;;20.25;78.99;94678.97;5011311;28;20236;-75
2022/08/08 00:18:17;;;;;;;7.95;5.53;;;;;;;20.08;79.52;94686.00;5011353;28;20231;-76
2022/08/08 00:20:49;;;;;;;9.20;4.88;;;;;;;20.04;79.64;94689.91;5011764;28;20196;-76
2022/08/08 00:23:24;;;;;;;8.38;5.32;;;;;;;20.00;79.68;94695.38;5010947;28;20652;-75
2022/08/08 00:25:54;;;;;;;7.25;5.30;;;;;;;19.97;79.44;94700.84;5010431;28;20255;-75
2022/08/08 00:28:29;;;;;;;8.10;5.45;;;;;;;19.96;79.46;94693.78;5010991;28;20212;-75
2022/08/08 00:30:58;;;;;;;7.68;5.05;;;;;;;20.02;78.11;94697.75;5011181;28;20251;-75
2022/08/08 00:33:30;;;;;;;8.85;5.47;;;;;;;20.02;78.02;94697.75;5010679;28;20208;-74
2022/08/08 00:36:03;;;;;;;7.72;5.47;;;;;;;20.05;78.09;94691.47;5011063;28;20204;-74
2022/08/08 00:38:41;;;;;;;7.38;4.88;;;;;;;20.02;79.02;94695.00;5011270;28;20239;-76
2022/08/08 00:41:41;;;;;;;8.75;5.63;;;;;;;19.97;79.10;94695.34;5010894;28;20212;-76
2022/08/08 00:44:45;;;;;;;7.65;5.45;;;;;;;19.98;79.39;94692.22;5010637;28;20738;-76
2022/08/08 00:47:56;;;;;;;10.13;5.57;;;;;;;19.80;79.99;94694.13;4999318;28;20212;-75
2022/08/08 00:51:06;;;;;;;8.70;4.63;;;;;;;19.67;79.47;94688.16;5001248;28;20211;-75
2022/08/08 00:54:09;;;;;;;6.45;4.25;;;;;;;19.63;79.27;94694.78;5010928;28;20209;-75
2022/08/08 00:57:03;;;;;;;11.55;5.43;;;;;;;19.62;79.09;94696.75;5010944;28;20223;-75
2022/08/08 01:00:06;;;;;;;5.47;4.40;;;;;;;19.64;79.13;94699.13;5010456;28;20201;-76
2022/08/08 01:03:10;;;;;;;6.22;4.50;;;;;;;19.69;77.98;94696.78;5010910;28;20221;-76
2022/08/08 01:06:11;;;;;;;8.18;4.68;;;;;;;19.73;77.87;94697.59;5010447;28;20200;-76
2022/08/08 01:09:23;;;;;;;7.40;4.63;;;;;;;19.72;77.16;94696.03;5010691;28;20307;-76
2022/08/08 01:12:18;;;;;;;7.50;4.75;;;;;;;19.68;78.19;94703.44;5009302;28;20576;-76
2022/08/08 01:15:15;;;;;;;5.30;4.22;;;;;;;19.72;78.96;94700.72;5009795;28;20715;-76
2022/08/08 01:18:19;;;;;;;7.32;5.30;;;;;;;19.71;79.32;94699.16;5010432;28;20244;-76
2022/08/08 01:21:13;;;;;;;6.13;4.43;;;;;;;19.59;79.51;94708.50;5010023;28;20278;-76
2022/08/08 01:24:24;;;;;;;6.95;5.35;;;;;;;19.47;80.52;94708.78;5010299;28;20205;-76
2022/08/08 01:27:13;;;;;;;8.98;4.88;;;;;;;19.28;81.25;94704.31;4966824;28;20207;-76
2022/08/08 01:30:12;;;;;;;6.60;4.82;;;;;;;19.22;82.46;94705.06;5009726;28;20209;-77
2022/08/08 01:33:20;;;;;;;8.80;4.82;;;;;;;19.25;84.08;94720.81;5010061;28;20208;-76
2022/08/08 01:36:15;;;;;;;7.18;4.82;;;;;;;19.26;84.85;94722.38;5009535;28;20197;-76
2022/08/08 01:39:06;;;;;;;9.48;5.15;;;;;;;19.25;84.94;94731.78;5009868;28;20209;-76
2022/08/08 01:41:47;;;;;;;8.05;5.75;;;;;;;19.17;85.59;94731.72;5005268;28;20232;-75
2022/08/08 01:44:33;;;;;;;11.43;5.75;;;;;;;19.14;85.56;94731.69;5009571;28;20596;-75
2022/08/08 01:47:13;;;;;;;10.25;5.20;;;;;;;19.11;85.11;94733.25;5009501;28;20193;-74
2022/08/08 01:49:52;;;;;;;7.35;4.95;;;;;;;19.07;85.61;94732.41;5009393;28;20299;-74
2022/08/08 01:52:36;;;;;;;9.20;5.65;;;;;;;18.91;85.54;94729.13;5009987;28;20558;-75
2022/08/08 01:55:12;;;;;;;8.77;5.28;;;;;;;18.95;85.34;94726.41;5009176;28;20286;-75
2022/08/08 01:57:48;;;;;;;9.00;5.63;;;;;;;19.00;85.66;94732.34;5008613;28;20672;-75
2022/08/08 02:00:21;;;;;;;9.35;5.03;;;;;;;18.95;85.58;94727.22;5008943;28;20578;-74
2022/08/08 02:03:17;;;;;;;7.10;4.30;;;;;;;18.98;85.21;94731.94;5010071;28;20761;-75
2022/08/08 02:05:54;;;;;;;9.07;5.45;;;;;;;18.94;85.24;94728.38;5009296;28;20280;-75
2022/08/08 02:08:34;;;;;;;6.65;4.72;;;;;;;18.71;85.02;94725.03;5008737;28;20552;-75
2022/08/08 02:11:12;;;;;;;8.05;4.65;;;;;;;18.74;84.02;94724.25;5009075;28;20208;-75
2022/08/08 02:13:57;;;;;;;8.00;5.65;;;;;;;18.78;85.08;94722.34;5008690;28;20213;-77
2022/08/08 02:16:34;;;;;;;10.07;4.93;;;;;;;18.86;84.53;94728.69;5009525;28;20276;-75
2022/08/08 02:19:12;;;;;;;7.55;4.72;;;;;;;18.78;84.43;94725.06;5009803;28;20275;-75
2022/08/08 02:24:45;;;;;;;6.25;4.30;;;;;;;18.67;85.55;94729.69;5012745;28;20208;-75
2022/08/08 02:27:17;;;;;;;7.65;5.57;;;;;;;18.74;85.58;94724.25;5013945;28;20205;-76
2022/08/08 02:30:02;;;;;;;6.80;5.03;;;;;;;18.69;85.50;94727.34;5013413;28;20228;-75
2022/08/08 02:32:42;;;;;;;6.50;4.72;;;;;;;18.68;84.57;94720.28;5013224;28;20262;-75
2022/08/08 02:35:29;;;;;;;7.50;4.60;;;;;;;18.69;83.73;94732.84;5012880;28;20686;-75
2022/08/08 02:38:36;;;;;;;7.63;4.95;;;;;;;18.80;83.90;94725.50;5013040;28;20201;-75
2022/08/08 02:41:30;;;;;;;7.85;5.30;;;;;;;18.70;83.71;94734.41;5013322;28;20211;-75
2022/08/08 02:44:24;;;;;;;9.52;4.93;;;;;;;18.71;83.99;94730.50;5012845;28;20567;-76
2022/08/08 02:47:17;;;;;;;7.03;4.53;;;;;;;18.73;83.01;94741.88;4991671;28;20660;-76
2022/08/08 02:50:18;;;;;;;7.03;4.90;;;;;;;18.77;82.08;94745.47;5013184;28;20217;-76
2022/08/08 02:52:55;;;;;;;5.53;4.22;;;;;;;18.68;82.94;94747.72;5012639;28;20220;-76
2022/08/08 02:55:50;;;;;;;7.05;4.40;;;;;;;18.73;82.21;94739.13;5012619;28;20734;-76
2022/08/08 02:58:53;;;;;;;6.75;4.47;;;;;;;18.80;81.80;94744.72;5013192;28;20279;-76
2022/08/08 03:01:52;;;;;;;5.57;3.72;;;;;;;18.83;81.10;94743.16;5012201;28;20219;-76
2022/08/08 03:05:07;;;;;;;6.43;4.13;;;;;;;18.78;81.27;94747.03;4979807;28;20507;-76
2022/08/08 03:08:16;;;;;;;7.68;4.10;;;;;;;18.71;81.02;94746.97;4995048;28;20209;-76
2022/08/08 03:11:16;;;;;;;5.82;4.15;;;;;;;18.74;80.99;94748.94;5012531;28;20217;-75
2022/08/08 03:14:01;;;;;;;9.68;4.47;;;;;;;18.78;80.72;94747.03;5012163;28;20200;-76
2022/08/08 03:16:41;;;;;;;7.75;4.38;;;;;;;18.56;82.50;94747.97;5012472;28;20736;-75
2022/08/08 03:19:41;;;;;;;6.85;4.82;;;;;;;18.38;83.87;94751.28;5012799;28;20221;-75
2022/08/08 03:22:07;;;;;;;7.10;4.28;;;;;;;18.42;83.95;94746.63;5011991;28;20229;-76
2022/08/08 03:24:36;;;;;;;6.30;3.95;;;;;;;18.43;83.90;94753.69;5012167;28;20208;-75
2022/08/08 03:27:13;;;;;;;9.73;4.47;;;;;;;18.22;85.09;94758.13;5012441;28;20279;-75
2022/08/08 03:29:46;;;;;;;7.97;4.65;;;;;;;18.27;84.59;94764.06;5012063;28;20600;-74
2022/08/08 03:34:56;;;;;;;7.93;4.55;;;;;;;18.57;82.91;94761.31;5011638;28;20677;-76
2022/08/08 03:37:24;;;;;;;6.13;3.92;;;;;;;18.86;81.92;94758.91;5012232;28;20259;-76
2022/08/08 03:39:53;;;;;;;8.00;4.80;;;;;;;19.11;81.90;94760.72;5011619;28;20344;-76
2022/08/08 03:42:20;;;;;;;13.40;4.45;;;;;;;19.70;79.66;94761.59;5012174;28;20229;-76
2022/08/08 03:44:47;;;;;;;7.90;5.40;;;;;;;20.45;76.41;94759.28;5011592;28;20202;-77
2022/08/08 03:47:19;;;;;;;9.33;5.20;;;;;;;21.19;73.84;94750.44;5011653;28;20436;-75
2022/08/08 03:49:46;;;;;;;7.97;4.80;;;;;;;21.39;71.96;94750.84;5011909;28;20209;-76
2022/08/08 03:52:13;;;;;;;11.15;5.00;;;;;;;22.16;70.19;94751.94;5012007;28;20306;-76
2022/08/08 03:54:42;;;;;;;15.40;10.60;;;;;;;23.01;67.11;94751.59;5011621;28;20371;-74
2022/08/08 03:57:12;;;;;;;7.15;5.20;;;;;;;23.03;65.45;94754.75;5010854;28;20291;-74
2022/08/08 03:59:39;;;;;;;6.30;4.60;;;;;;;22.45;67.28;94753.44;5011133;28;20217;-74
2022/08/08 04:02:15;;;;;;;7.10;5.22;;;;;;;23.47;64.29;94759.59;5011451;28;20283;-74
2022/08/08 04:04:42;;;;;;;7.18;4.82;;;;;;;24.29;62.00;94758.88;5011242;28;20228;-75
2022/08/08 04:07:09;;;;;;;7.40;4.90;;;;;;;23.83;63.51;94754.56;5011559;28;20205;-76
2022/08/08 04:09:36;;;;;;;8.70;4.82;;;;;;;24.94;60.50;94754.94;5011297;28;20315;-75
2022/08/08 04:12:04;;;;;;;7.88;6.63;;;;;;;25.75;58.09;94752.94;5011008;28;20618;-75
2022/08/08 04:14:32;;;;;;;8.80;7.15;;;;;;;26.33;56.17;94747.19;5010847;28;20793;-74
2022/08/08 04:16:59;;;;;;;8.80;7.35;;;;;;;27.04;54.50;94746.56;5010944;28;20256;-73
2022/08/08 04:19:26;;;;;;;8.15;6.53;;;;;;;27.65;53.50;94756.31;5011250;28;20304;-74
2022/08/08 04:21:53;;;;;;;10.10;6.78;;;;;;;28.09;50.98;94752.03;5011220;28;20255;-74
2022/08/08 04:24:19;;;;;;;11.38;8.65;;;;;;;27.94;52.04;94757.16;5010948;28;20763;-75
2022/08/08 04:26:46;;;;;;;10.65;8.55;;;;;;;28.88;50.41;94757.84;5011040;28;20212;-75
2022/08/08 04:29:13;;;;;;;10.20;7.10;;;;;;;29.37;48.62;94748.44;5011097;28;20735;-74
2022/08/08 04:31:42;;;;;;;11.10;8.07;;;;;;;29.32;48.46;94753.34;5011268;28;20217;-72
2022/08/08 04:34:09;;;;;;;9.15;7.57;;;;;;;29.28;48.36;94758.25;5010932;28;20243;-74
2022/08/08 04:36:36;;;;;;;10.60;7.18;;;;;;;29.35;48.12;94751.69;5010547;28;20213;-73
2022/08/08 04:39:03;;;;;;;9.68;7.47;;;;;;;30.32;46.12;94762.09;5011456;28;20610;-74
2022/08/08 04:41:30;;;;;;;8.88;7.40;;;;;;;31.40;43.40;94749.38;5010432;28;20304;-73
2022/08/08 04:43:57;;;;;;;9.50;6.65;;;;;;;30.88;44.25;94761.34;5010716;28;20225;-73
2022/08/08 04:46:24;;;;;;;8.80;7.50;;;;;;;31.10;43.76;94761.34;5009453;28;20201;-73
2022/08/08 04:48:52;;;;;;;8.55;7.22;;;;;;;31.68;42.71;94761.50;5010844;28;20197;-74
2022/08/08 04:51:19;;;;;;;8.23;7.35;;;;;;;32.39;41.29;94769.03;5010487;28;20260;-73
2022/08/08 04:53:46;;;;;;;8.52;6.70;;;;;;;32.27;41.13;94765.09;5010777;28;20205;-74
2022/08/08 04:56:12;;;;;;;12.77;7.60;;;;;;;32.29;41.29;94765.41;5010380;28;20219;-74
2022/08/08 04:58:39;;;;;;;11.45;7.38;;;;;;;32.37;41.24;94768.72;5010392;28;20715;-74
2022/08/08 05:01:06;;;;;;;10.35;7.93;;;;;;;32.34;41.08;94770.41;5010493;28;20255;-74
2022/08/08 05:03:33;;;;;;;8.68;7.35;;;;;;;32.63;40.57;94783.22;5010434;28;20244;-74
2022/08/08 05:06:01;;;;;;;10.70;8.13;;;;;;;32.33;41.03;94774.47;5010075;28;20664;-74
2022/08/08 05:08:28;;;;;;;8.75;7.45;;;;;;;31.63;42.76;94770.47;5010280;28;20648;-74
2022/08/08 05:10:55;;;;;;;8.75;7.57;;;;;;;32.49;41.07;94771.38;5010417;28;20209;-74
2022/08/08 05:13:22;;;;;;;9.30;7.95;;;;;;;32.40;40.78;94767.75;5009438;28;20263;-73
2022/08/08 05:15:49;;;;;;;9.63;7.78;;;;;;;32.90;40.31;94774.81;5009777;28;20252;-74
2022/08/08 05:18:16;;;;;;;10.35;8.18;;;;;;;31.42;42.68;94774.13;5009520;28;20232;-74
2022/08/08 05:20:43;;;;;;;9.68;7.90;;;;;;;32.22;41.85;94779.75;5010350;28;20208;-74
2022/08/08 05:23:11;;;;;;;10.05;7.15;;;;;;;31.38;43.27;94779.06;5009979;28;20621;-74
2022/08/08 05:25:38;;;;;;;9.05;7.45;;;;;;;31.54;42.90;94787.25;5010142;28;20205;-74
2022/08/08 05:28:05;;;;;;;10.77;7.55;;;;;;;32.59;40.51;94791.00;5010067;28;20251;-74
2022/08/08 05:30:31;;;;;;;12.15;7.30;;;;;;;33.30;38.79;94782.25;5009968;28;20259;-74
2022/08/08 05:32:59;;;;;;;8.35;6.18;;;;;;;33.49;39.67;94795.00;5009825;28;20201;-74
2022/08/08 05:35:26;;;;;;;8.80;6.35;;;;;;;32.26;40.59;94788.75;5009584;28;20644;-74
2022/08/08 05:37:55;;;;;;;7.50;6.50;;;;;;;33.72;38.36;94785.88;5009636;28;20204;-74
2022/08/08 05:40:23;;;;;;;8.98;6.65;;;;;;;33.94;38.01;94790.50;5010210;28;20632;-74
2022/08/08 05:42:54;;;;;;;8.50;6.57;;;;;;;34.22;36.99;94783.47;5009005;28;20233;-74
2022/08/08 05:45:23;;;;;;;10.27;7.35;;;;;;;34.51;36.70;94786.44;5009728;28;20263;-74
2022/08/08 05:47:52;;;;;;;9.43;7.30;;;;;;;35.73;34.58;94789.25;5009360;28;20267;-74
2022/08/08 05:50:19;;;;;;;9.63;6.75;;;;;;;35.59;34.76;94785.19;5009700;28;20913;-74
2022/08/08 05:52:47;;;;;;;8.07;6.53;;;;;;;36.01;34.20;94786.91;5009273;28;20266;-75
2022/08/08 05:55:14;;;;;;;7.35;6.15;;;;;;;36.58;33.34;94779.53;5009939;28;20287;-74
2022/08/08 05:57:46;;;;;;;9.07;7.20;;;;;;;36.71;32.54;94786.88;5009385;28;20738;-75
2022/08/08 06:00:13;;;;;;;8.85;6.93;;;;;;;36.74;32.75;94788.72;5010116;28;20275;-74
2022/08/08 06:05:30;;;;;;;8.10;6.75;;;;;;;37.39;32.00;94786.38;5010155;28;20388;-75
2022/08/08 06:07:57;;;;;;;10.75;7.28;;;;;;;35.70;34.11;94799.47;5008932;28;20708;-75
2022/08/08 06:10:25;;;;;;;9.90;6.80;;;;;;;34.98;34.98;94787.66;5009348;28;20213;-74
2022/08/08 06:12:53;;;;;;;8.18;7.13;;;;;;;35.40;34.59;94795.88;5009586;28;20212;-76
2022/08/08 06:15:20;;;;;;;7.43;6.38;;;;;;;36.16;33.74;94793.28;5009453;28;20229;-75
2022/08/08 06:17:49;;;;;;;8.82;6.28;;;;;;;35.23;35.00;94795.56;5009657;28;20225;-74
2022/08/08 06:20:16;;;;;;;7.50;5.78;;;;;;;35.37;35.46;94796.84;5009142;28;20201;-75
2022/08/08 06:22:43;;;;;;;8.73;6.43;;;;;;;35.61;34.30;94799.56;5009506;28;20307;-75
2022/08/08 06:25:10;;;;;;;8.35;7.10;;;;;;;35.84;34.35;94800.72;5009605;28;20209;-75
2022/08/08 06:27:45;;;;;;;8.15;6.70;;;;;;;36.96;32.34;94797.47;5009867;28;20212;-73
2022/08/08 06:30:15;;;;;;;6.93;6.18;;;;;;;36.83;32.55;94795.00;5010207;28;20247;-77
2022/08/08 06:32:43;;;;;;;7.55;5.65;;;;;;;35.47;33.66;94803.16;5010205;28;20197;-76
2022/08/08 06:35:12;;;;;;;6.80;6.05;;;;;;;35.02;34.17;94805.13;5009694;28;20209;-76
2022/08/08 06:37:45;;;;;;;6.22;5.60;;;;;;;34.70;35.28;94803.19;5008478;28;20209;-76
2022/08/08 06:40:14;;;;;;;6.85;5.47;;;;;;;35.44;33.77;94806.94;5008220;28;20648;-73
2022/08/08 06:42:47;;;;;;;6.88;6.18;;;;;;;35.71;33.56;94806.66;5006290;28;20193;-75
2022/08/08 06:45:16;;;;;;;8.07;5.90;;;;;;;35.56;34.80;94803.06;5008326;28;21651;-75
2022/08/08 06:47:44;;;;;;;7.30;6.22;;;;;;;34.20;36.67;94811.28;5006684;28;20205;-76
2022/08/08 06:50:11;;;;;;;6.45;5.60;;;;;;;34.22;36.33;94811.59;5007768;28;20682;-76
2022/08/08 06:52:39;;;;;;;8.80;6.00;;;;;;;34.96;35.11;94800.66;5009038;28;20225;-76
2022/08/08 06:55:07;;;;;;;7.63;6.10;;;;;;;36.52;32.82;94804.06;5006480;28;20209;-73
2022/08/08 06:57:34;;;;;;;7.18;5.43;;;;;;;37.34;31.14;94799.94;5008751;28;20201;-75
2022/08/08 07:00:02;;;;;;;6.70;5.47;;;;;;;36.63;31.51;94809.84;5008730;28;20622;-74
2022/08/08 07:02:32;;;;;;;6.18;4.82;;;;;;;35.13;33.15;94822.25;5009199;28;20669;-74
2022/08/08 07:05:04;;;;;;;8.13;5.50;;;;;;;34.89;34.09;94818.69;5006565;28;20607;-75
2022/08/08 07:07:40;;;;;;;6.40;5.65;;;;;;;35.06;33.70;94811.38;5009139;28;20291;-75
2022/08/08 07:10:10;;;;;;;6.05;5.03;;;;;;;36.37;32.46;94808.22;5010924;28;20286;-75
2022/08/08 07:12:40;;;;;;;6.40;5.18;;;;;;;35.53;33.75;94810.47;5012769;28;20216;-77
2022/08/08 07:15:10;;;;;;;6.93;5.82;;;;;;;36.23;32.80;94815.47;5012610;28;20268;-74
2022/08/08 07:17:46;;;;;;;7.18;5.35;;;;;;;37.12;31.61;94811.00;5006643;28;20780;-73
2022/08/08 07:20:18;;;;;;;5.70;5.07;;;;;;;36.58;31.68;94809.81;5009715;28;20328;-73
2022/08/08 07:22:59;;;;;;;9.80;4.95;;;;;;;35.61;32.28;94814.44;5001478;28;20278;-75
2022/08/08 07:25:26;;;;;;;7.38;5.45;;;;;;;34.40;34.15;94816.38;4995872;28;20206;-73
2022/08/08 07:28:00;;;;;;;5.95;5.10;;;;;;;33.44;35.54;94818.13;5003051;28;20209;-74
2022/08/08 07:30:26;;;;;;;5.07;4.57;;;;;;;32.14;37.27;94823.28;5010090;28;20205;-74
2022/08/08 07:32:56;;;;;;;6.18;4.93;;;;;;;32.09;37.95;94821.13;5010140;28;20299;-73
2022/08/08 07:35:24;;;;;;;6.07;5.10;;;;;;;33.44;35.83;94818.13;5010563;28;20275;-72
2022/08/08 07:37:54;;;;;;;6.88;4.95;;;;;;;34.44;34.09;94817.72;5010657;28;20208;-73
2022/08/08 07:40:21;;;;;;;6.88;5.13;;;;;;;34.28;34.36;94814.56;5010704;28;20209;-73
2022/08/08 07:42:50;;;;;;;5.40;4.90;;;;;;;34.32;33.75;94813.13;5009448;28;20208;-73
2022/08/08 07:45:17;;;;;;;6.40;4.70;;;;;;;33.02;34.87;94824.41;5009905;28;20219;-73
2022/08/08 07:47:44;;;;;;;6.70;4.32;;;;;;;32.36;34.83;94815.59;5009854;28;20236;-73
2022/08/08 07:50:12;;;;;;;4.43;3.65;;;;;;;31.81;35.05;94816.66;5010664;28;20209;-73
2022/08/08 07:52:43;;;;;;;4.65;3.78;;;;;;;31.50;36.88;94819.44;5000896;28;20244;-73
2022/08/08 07:55:17;;;;;;;5.72;4.35;;;;;;;31.67;36.76;94813.16;5001944;28;20664;-73
2022/08/08 07:57:51;;;;;;;4.60;3.63;;;;;;;31.66;36.09;94806.00;4996799;28;20189;-73
2022/08/08 08:00:18;;;;;;;5.22;3.97;;;;;;;31.70;36.03;94812.25;5002154;28;20209;-73
2022/08/08 08:02:51;;;;;;;5.13;3.92;;;;;;;31.98;36.23;94803.97;5008565;28;20207;-73
2022/08/08 08:05:23;;;;;;;4.20;3.80;;;;;;;32.20;36.12;94804.66;5006548;28;20205;-73
2022/08/08 08:08:06;;;;;;;4.85;4.03;;;;;;;30.70;38.24;94797.56;5009996;28;20710;-73
2022/08/08 08:10:35;;;;;;;5.88;3.35;;;;;;;30.09;37.75;94803.63;5010277;28;20710;-73
2022/08/08 08:13:22;;;;;;;4.40;2.90;;;;;;;30.35;37.42;94799.53;5007051;28;20209;-72
2022/08/08 08:15:59;;;;;;;6.60;4.05;;;;;;;30.95;36.71;94805.84;4996494;28;20251;-73
2022/08/08 08:18:32;;;;;;;5.20;4.10;;;;;;;30.86;37.50;94799.41;5009917;28;20310;-74
2022/08/08 08:21:02;;;;;;;4.18;3.78;;;;;;;30.07;38.04;94790.09;5011086;28;20193;-72
2022/08/08 08:23:29;;;;;;;5.82;3.80;;;;;;;30.06;38.26;94794.16;5001381;28;20308;-72
2022/08/08 08:25:56;;;;;;;3.08;2.78;;;;;;;30.27;36.21;94793.41;5000589;28;20204;-73
2022/08/08 08:28:24;;;;;;;4.38;3.38;;;;;;;30.18;36.55;94790.53;5010643;28;20696;-73
2022/08/08 08:30:51;;;;;;;4.85;3.38;;;;;;;29.60;37.95;94801.19;5010832;28;20271;-73
2022/08/08 08:33:18;;;;;;;4.60;3.47;;;;;;;29.39;38.44;94805.41;5002388;28;20732;-73
2022/08/08 08:35:45;;;;;;;5.25;3.53;;;;;;;29.17;38.51;94796.88;5001397;28;20237;-73
2022/08/08 08:38:13;;;;;;;4.22;3.45;;;;;;;29.66;37.68;94797.38;5010558;28;20197;-73
2022/08/08 08:40:41;;;;;;;3.50;2.92;;;;;;;29.75;38.65;94787.56;5010033;28;20209;-73
2022/08/08 08:43:08;;;;;;;3.95;3.25;;;;;;;29.96;37.16;94795.22;5005279;28;20201;-74
2022/08/08 08:45:36;;;;;;;6.43;3.60;;;;;;;30.25;37.04;94790.28;5002604;28;20965;-74
2022/08/08 08:48:03;;;;;;;3.58;3.00;;;;;;;30.55;36.55;94776.91;5009342;28;20232;-73
2022/08/08 08:50:30;;;;;;;4.55;3.28;;;;;;;30.56;36.80;94786.88;5009189;28;20647;-73
2022/08/08 08:52:59;;;;;;;4.65;3.50;;;;;;;31.10;35.55;94775.34;5005849;28;20197;-74
2022/08/08 08:55:30;;;;;;;4.15;3.00;;;;;;;30.98;36.10;94776.94;5006352;28;20213;-72
2022/08/08 08:58:00;;;;;;;3.65;2.70;;;;;;;31.14;35.77;94775.22;5009068;28;20208;-72
2022/08/08 09:00:28;;;;;;;4.20;3.38;;;;;;;31.16;36.44;94767.13;5009073;28;20407;-72
2022/08/08 09:02:58;;;;;;;4.93;2.83;;;;;;;31.63;34.78;94762.06;5007515;28;20275;-72
2022/08/08 09:05:27;;;;;;;5.03;3.42;;;;;;;31.88;33.82;94760.31;5006045;28;20363;-72
2022/08/08 09:07:56;;;;;;;3.85;3.33;;;;;;;31.76;34.20;94765.56;5008703;28;20213;-72
2022/08/08 09:10:26;;;;;;;5.30;3.42;;;;;;;30.80;35.74;94757.22;5009004;28;20204;-72
2022/08/08 09:12:56;;;;;;;3.88;3.15;;;;;;;30.64;36.15;94766.59;5002976;28;20210;-73
2022/08/08 09:15:23;;;;;;;7.03;3.20;;;;;;;30.31;36.10;94765.34;5002418;28;20224;-73
2022/08/08 09:17:51;;;;;;;3.83;3.17;;;;;;;30.13;36.65;94763.16;4999558;28;20240;-72
2022/08/08 09:20:19;;;;;;;3.40;3.10;;;;;;;29.49;37.66;94765.22;5007846;28;20789;-73
2022/08/08 09:22:47;;;;;;;4.18;3.22;;;;;;;29.48;37.12;94762.88;5007664;28;20204;-73
2022/08/08 09:25:14;;;;;;;3.85;3.10;;;;;;;29.39;37.50;94765.53;5007767;28;20244;-73
2022/08/08 09:27:41;;;;;;;4.20;3.40;;;;;;;29.40;38.39;94765.09;5008200;28;20260;-73
2022/08/08 09:30:13;;;;;;;4.22;3.45;;;;;;;29.14;38.34;94760.69;5006824;28;20213;-73
2022/08/08 09:32:42;;;;;;;5.00;2.70;;;;;;;29.53;37.26;94749.13;5007226;28;20205;-73
2022/08/08 09:35:12;;;;;;;4.60;3.00;;;;;;;29.79;35.90;94744.31;5007161;28;20761;-73
2022/08/08 09:37:48;;;;;;;2.35;2.15;;;;;;;30.07;35.32;94734.22;5007413;28;20209;-73
2022/08/08 09:40:16;;;;;;;3.03;2.63;;;;;;;29.99;34.24;94744.06;5007686;28;20668;-74
2022/08/08 09:42:45;;;;;;;3.30;2.50;;;;;;;29.80;34.72;94739.47;5007483;28;20209;-74
2022/08/08 09:45:19;;;;;;;3.15;2.20;;;;;;;30.05;34.87;94731.09;5007519;28;20620;-75
2022/08/08 09:47:47;;;;;;;4.47;2.72;;;;;;;30.70;34.16;94725.63;5002673;28;20200;-73
2022/08/08 09:50:16;;;;;;;2.78;2.20;;;;;;;30.71;33.70;94743.19;5007367;28;20591;-74
2022/08/08 09:52:48;;;;;;;2.78;2.33;;;;;;;30.22;33.85;94734.50;5007023;28;20663;-74
2022/08/08 09:55:16;;;;;;;3.85;2.22;;;;;;;30.44;33.22;94717.78;5007629;28;20220;-72
2022/08/08 09:57:46;;;;;;;4.25;2.40;;;;;;;31.04;33.62;94713.53;5007056;28;20599;-73
2022/08/08 10:00:18;;;;;;;4.82;2.70;;;;;;;30.99;33.42;94718.97;5007272;28;20271;-73
2022/08/08 10:02:47;;;;;;;3.22;2.60;;;;;;;31.52;32.87;94714.09;5006780;28;20244;-74
2022/08/08 10:05:16;;;;;;;3.25;2.38;;;;;;;30.78;32.76;94709.34;5007436;28;20233;-73
2022/08/08 10:07:56;;;;;;;5.88;2.63;;;;;;;30.68;33.66;94710.53;5011072;28;20266;-72
2022/08/08 10:10:26;;;;;;;3.17;2.50;;;;;;;31.25;33.84;94702.78;5008249;28;20289;-73
2022/08/08 10:12:54;;;;;;;3.47;2.78;;;;;;;30.88;33.70;94702.59;5007671;28;20205;-76
2022/08/08 10:15:24;;;;;;;3.65;3.03;;;;;;;30.99;33.50;94685.38;5008148;28;20240;-73
2022/08/08 10:17:52;;;;;;;4.00;2.75;;;;;;;31.64;33.17;94690.81;5008318;28;20283;-72
2022/08/08 10:20:20;;;;;;;2.70;2.00;;;;;;;31.02;31.79;94693.63;5008188;28;20267;-72
2022/08/08 10:22:54;;;;;;;2.40;2.03;;;;;;;30.87;32.21;94687.03;5007460;28;20743;-72
2022/08/08 10:25:21;;;;;;;2.50;1.90;;;;;;;31.38;31.08;94684.66;5006986;28;20235;-72
2022/08/08 10:27:52;;;;;;;2.60;2.20;;;;;;;31.33;30.76;94684.44;5007373;28;20209;-74
2022/08/08 10:30:23;;;;;;;3.53;1.90;;;;;;;30.96;31.58;94675.88;5008130;28;20197;-75
2022/08/08 10:32:51;;;;;;;2.33;1.90;;;;;;;30.89;32.18;94681.72;5007481;28;20263;-73
2022/08/08 10:35:20;;;;;;;2.55;1.95;;;;;;;30.73;32.21;94679.16;5007506;28;20197;-72
2022/08/08 10:37:56;;;;;;;2.20;2.00;;;;;;;31.27;31.61;94666.72;5007338;28;20675;-73
2022/08/08 10:40:24;;;;;;;2.60;2.20;;;;;;;31.26;31.75;94665.94;4999440;28;20655;-73
2022/08/08 10:42:56;;;;;;;1.92;1.73;;;;;;;30.77;30.68;94679.78;5007053;28;20407;-74
2022/08/08 10:45:25;;;;;;;3.15;2.08;;;;;;;30.95;32.26;94679.91;5009551;28;20298;-74
2022/08/08 10:47:53;;;;;;;3.28;1.80;;;;;;;30.38;32.23;94676.41;5006826;28;20220;-84
2022/08/08 10:50:20;;;;;;;3.13;2.10;;;;;;;30.22;32.95;94662.59;5011435;28;20271;-74
2022/08/08 10:52:47;;;;;;;3.17;1.80;;;;;;;30.11;32.48;94670.59;5010581;28;20314;-74
2022/08/08 10:55:17;;;;;;;2.33;1.95;;;;;;;30.30;32.84;94658.34;5010160;28;20272;-74
2022/08/08 10:57:45;;;;;;;2.88;2.17;;;;;;;30.23;32.50;94647.41;5005775;28;20567;-74
2022/08/08 11:00:14;;;;;;;3.13;2.20;;;;;;;30.27;32.73;94673.22;5002301;28;20201;-75
2022/08/08 11:02:42;;;;;;;4.15;2.08;;;;;;;29.89;33.07;94664.16;5004473;28;20259;-73
2022/08/08 11:05:12;;;;;;;2.97;2.28;;;;;;;30.19;33.88;94657.16;5010472;28;20581;-74
2022/08/08 11:07:40;;;;;;;3.22;1.90;;;;;;;29.76;33.74;94652.25;5008281;28;20205;-75
2022/08/08 11:10:09;;;;;;;2.67;1.90;;;;;;;29.98;33.31;94655.91;5012210;28;20576;-75
2022/08/08 11:12:47;;;;;;;1.90;1.80;;;;;;;29.98;33.25;94644.72;5011289;28;20197;-74
2022/08/08 11:15:15;;;;;;;3.85;1.98;;;;;;;30.11;32.77;94644.66;5012179;28;20224;-81
2022/08/08 11:17:44;;;;;;;5.10;2.22;;;;;;;29.78;33.64;94649.78;5012897;28;20233;-76
2022/08/08 11:20:14;;;;;;;2.47;1.95;;;;;;;29.48;33.58;94643.59;5012521;28;20208;-73
2022/08/08 11:22:42;;;;;;;4.15;2.10;;;;;;;29.41;33.55;94649.41;5012899;28;20703;-75
2022/08/08 11:25:11;;;;;;;2.30;2.08;;;;;;;30.02;33.38;94643.38;5011171;28;20243;-73
2022/08/08 11:27:38;;;;;;;4.00;2.33;;;;;;;29.86;32.82;94642.72;5011324;28;20545;-74
2022/08/08 11:30:10;;;;;;;3.90;2.20;;;;;;;29.37;33.70;94643.16;5011179;28;20201;-74
2022/08/08 11:32:40;;;;;;;3.50;2.22;;;;;;;29.48;33.82;94649.19;5011719;28;20185;-74
2022/08/08 11:35:10;;;;;;;4.15;2.40;;;;;;;29.50;33.98;94643.94;5011098;28;20212;-75
2022/08/08 11:37:38;;;;;;;3.17;2.40;;;;;;;29.64;33.78;94634.31;5011059;28;20205;-73
2022/08/08 11:40:07;;;;;;;2.55;2.30;;;;;;;30.19;34.02;94630.00;5012361;28;20640;-72
2022/08/08 11:42:35;;;;;;;3.03;2.13;;;;;;;30.61;33.04;94632.47;5011827;28;20201;-76
2022/08/08 11:45:02;;;;;;;2.58;1.98;;;;;;;30.22;32.63;94640.25;5011366;28;20232;-72
2022/08/08 11:47:30;;;;;;;2.42;2.15;;;;;;;30.28;33.20;94632.84;5011313;28;20212;-73
2022/08/08 11:49:59;;;;;;;3.25;2.25;;;;;;;30.19;33.21;94637.59;5010986;28;20251;-74
2022/08/08 11:52:28;;;;;;;3.00;2.20;;;;;;;29.98;33.33;94634.31;5011241;28;20301;-75
2022/08/08 11:54:55;;;;;;;2.67;2.40;;;;;;;29.89;33.95;94627.84;5011483;28;20227;-74
2022/08/08 11:57:25;;;;;;;4.60;2.17;;;;;;;29.96;33.55;94639.56;5011423;28;20243;-74
2022/08/08 12:00:00;;;;;;;3.70;2.33;;;;;;;30.06;33.75;94640.44;5011745;28;20559;-74
2022/08/08 12:02:28;;;;;;;2.50;2.13;;;;;;;30.43;34.20;94643.50;5011363;28;20664;-74
2022/08/08 12:05:03;;;;;;;3.92;2.28;;;;;;;29.80;35.46;94631.31;5011540;28;20483;-73
2022/08/08 12:07:32;;;;;;;7.05;2.67;;;;;;;29.79;34.71;94649.34;5012364;28;20212;-73
2022/08/08 12:10:10;;;;;;;3.78;2.45;;;;;;;29.61;34.65;94646.38;5012205;28;20225;-74